createdAt,value
2023-05-02T00:01:06.900Z,29.80
2023-05-02T00:03:36.957Z,28.55
2023-05-02T00:06:05.335Z,30.60
2023-05-02T00:08:33.430Z,30.02
2023-05-02T00:11:01.496Z,29.73
2023-05-02T00:13:29.480Z,26.92
2023-05-02T00:15:57.484Z,28.80
2023-05-02T00:18:25.653Z,25.15
2023-05-02T00:20:56.551Z,26.45
2023-05-02T00:23:25.014Z,22.65
2023-05-02T00:25:53.524Z,18.98
2023-05-02T00:28:21.587Z,17.77
2023-05-02T00:30:49.635Z,19.35
2023-05-02T00:33:17.682Z,16.33
2023-05-02T00:35:46.069Z,20.75
2023-05-02T00:38:15.559Z,20.20
2023-05-02T00:40:47.780Z,17.70
2023-05-02T00:43:16.438Z,18.52
2023-05-02T00:45:46.356Z,19.13
2023-05-02T00:48:15.134Z,23.83
2023-05-02T00:50:44.421Z,25.25
2023-05-02T00:53:12.630Z,18.70
2023-05-02T00:55:42.069Z,19.15
2023-05-02T00:58:13.107Z,18.88
2023-05-02T01:01:00.475Z,19.27
2023-05-02T01:03:38.141Z,22.48
2023-05-02T01:06:17.866Z,15.65
2023-05-02T01:08:51.957Z,13.75
2023-05-02T01:11:36.748Z,11.88
2023-05-02T01:14:07.162Z,11.95
2023-05-02T01:16:40.673Z,14.70
2023-05-02T01:19:13.692Z,12.57
2023-05-02T01:21:42.539Z,13.23
2023-05-02T01:24:15.873Z,12.52
2023-05-02T01:26:53.673Z,15.40
2023-05-02T01:29:24.387Z,15.38
2023-05-02T01:31:53.239Z,18.23
2023-05-02T01:34:23.423Z,19.52
2023-05-02T01:36:52.907Z,20.55
2023-05-02T01:39:23.681Z,20.88
2023-05-02T01:41:53.451Z,19.85
2023-05-02T01:44:24.452Z,21.42
2023-05-02T01:46:54.525Z,19.35
2023-05-02T01:49:24.549Z,19.35
2023-05-02T01:51:53.588Z,20.73
2023-05-02T01:54:24.183Z,20.20
2023-05-02T01:56:53.401Z,24.02
2023-05-02T01:59:24.940Z,23.75
2023-05-02T02:01:54.197Z,26.20
2023-05-02T02:04:25.447Z,19.77
2023-05-02T02:06:56.338Z,15.18
2023-05-02T02:09:24.496Z,25.80
2023-05-02T02:11:58.966Z,20.38
2023-05-02T02:14:35.041Z,21.02
2023-05-02T02:17:06.320Z,19.50
2023-05-02T02:19:35.484Z,29.90
2023-05-02T02:22:07.672Z,26.02
2023-05-02T02:24:37.910Z,31.60
2023-05-02T02:27:05.983Z,24.60
2023-05-02T02:29:36.720Z,24.30
2023-05-02T02:32:04.842Z,25.58
2023-05-02T02:34:33.025Z,22.35
2023-05-02T02:37:06.098Z,21.23
2023-05-02T02:39:48.160Z,23.00
2023-05-02T02:42:22.030Z,19.95
2023-05-02T02:44:57.457Z,23.42
2023-05-02T02:47:30.453Z,22.45
2023-05-02T02:50:12.513Z,26.00
2023-05-02T02:52:53.385Z,25.55
2023-05-02T02:55:30.623Z,20.52
2023-05-02T02:58:05.154Z,26.17
2023-05-02T03:00:36.038Z,22.05
2023-05-02T03:03:04.236Z,23.27
2023-05-02T03:05:34.619Z,25.52
2023-05-02T03:08:03.087Z,21.35
2023-05-02T03:10:31.167Z,22.58
2023-05-02T03:12:59.183Z,23.83
2023-05-02T03:15:51.181Z,22.67
2023-05-02T03:18:23.261Z,23.10
2023-05-02T03:20:52.242Z,25.05
2023-05-02T03:23:20.443Z,26.25
2023-05-02T03:25:49.234Z,23.10
2023-05-02T03:28:22.513Z,26.30
2023-05-02T03:30:53.436Z,20.10
2023-05-02T03:33:22.618Z,27.90
2023-05-02T03:35:50.727Z,22.75
2023-05-02T03:38:18.772Z,20.60
2023-05-02T03:40:49.466Z,23.02
2023-05-02T03:43:17.532Z,31.30
2023-05-02T03:45:48.143Z,28.52
2023-05-02T03:48:19.069Z,25.33
2023-05-02T03:50:47.160Z,24.83
2023-05-02T03:53:16.173Z,28.40
2023-05-02T03:55:52.742Z,20.85
2023-05-02T03:58:28.970Z,28.77
2023-05-02T04:00:57.354Z,24.55
2023-05-02T04:03:30.213Z,21.38
2023-05-02T04:06:00.851Z,24.75
2023-05-02T04:08:29.238Z,29.20
2023-05-02T04:10:59.519Z,27.30
2023-05-02T04:13:29.206Z,25.38
2023-05-02T04:15:59.480Z,23.70
2023-05-02T04:18:32.637Z,17.95
2023-05-02T04:21:03.454Z,21.90
2023-05-02T04:23:32.127Z,22.33
2023-05-02T04:26:02.803Z,16.60
2023-05-02T04:28:40.172Z,21.02
2023-05-02T04:31:09.902Z,26.23
2023-05-02T04:33:40.310Z,19.63
2023-05-02T04:36:10.631Z,17.58
2023-05-02T04:38:40.947Z,15.73
2023-05-02T04:41:09.888Z,23.00
2023-05-02T04:43:43.639Z,15.30
2023-05-02T04:46:12.048Z,17.08
2023-05-02T04:48:42.342Z,16.42
2023-05-02T04:51:10.790Z,15.02
2023-05-02T04:53:38.958Z,14.05
2023-05-02T04:56:07.958Z,14.63
2023-05-02T04:58:38.351Z,16.75
2023-05-02T05:01:09.847Z,18.33
2023-05-02T05:03:38.674Z,18.25
2023-05-02T05:06:09.994Z,16.13
2023-05-02T05:08:38.677Z,19.55
2023-05-02T05:11:06.761Z,21.60
2023-05-02T05:13:35.301Z,13.35
2023-05-02T05:16:03.995Z,22.73
2023-05-02T05:18:40.320Z,15.05
2023-05-02T05:21:12.212Z,20.13
2023-05-02T05:23:45.806Z,19.60
2023-05-02T05:26:17.775Z,20.38
2023-05-02T05:28:50.680Z,18.35
2023-05-02T05:31:20.101Z,23.67
2023-05-02T05:33:51.972Z,19.77
2023-05-02T05:36:23.639Z,17.63
2023-05-02T05:38:52.750Z,21.27
2023-05-02T05:41:21.510Z,19.15
2023-05-02T05:43:54.123Z,13.68
2023-05-02T05:46:22.816Z,16.65
2023-05-02T05:48:51.186Z,21.88
2023-05-02T05:51:20.034Z,18.42
2023-05-02T05:53:49.773Z,20.00
2023-05-02T05:56:18.826Z,25.20
2023-05-02T05:58:55.920Z,17.75
2023-05-02T06:01:24.290Z,16.50
2023-05-02T06:03:53.321Z,19.02
2023-05-02T06:06:21.732Z,17.35
2023-05-02T06:08:51.454Z,26.60
2023-05-02T06:11:19.781Z,18.02
2023-05-02T06:13:48.080Z,17.05
2023-05-02T06:16:16.540Z,19.70
2023-05-02T06:18:44.836Z,19.27
2023-05-02T06:21:13.173Z,19.15
2023-05-02T06:23:41.470Z,15.40
2023-05-02T06:26:11.287Z,23.63
2023-05-02T06:28:39.581Z,18.70
2023-05-02T06:31:07.923Z,24.55
2023-05-02T06:33:36.824Z,20.92
2023-05-02T06:36:05.527Z,17.30
2023-05-02T06:38:33.815Z,17.20
2023-05-02T06:41:02.050Z,17.15
2023-05-02T06:43:31.765Z,23.95
2023-05-02T06:46:00.145Z,18.05
2023-05-02T06:48:28.388Z,17.25
2023-05-02T06:50:56.676Z,17.40
2023-05-02T06:53:24.979Z,24.95
2023-05-02T06:55:53.413Z,16.15
2023-05-02T06:58:21.659Z,12.93
2023-05-02T07:00:51.522Z,16.48
2023-05-02T07:03:19.807Z,20.08
2023-05-02T07:05:48.077Z,12.82
2023-05-02T07:08:16.363Z,17.92
2023-05-02T07:10:44.680Z,16.90
2023-05-02T07:13:12.953Z,17.75
2023-05-02T07:15:41.348Z,22.38
2023-05-02T07:18:11.068Z,18.98
2023-05-02T07:20:42.315Z,15.18
2023-05-02T07:23:10.644Z,19.85
2023-05-02T07:25:40.109Z,15.45
2023-05-02T07:28:10.028Z,13.00
2023-05-02T07:30:38.268Z,12.02
2023-05-02T07:33:06.711Z,13.40
2023-05-02T07:35:36.390Z,15.13
2023-05-02T07:38:04.714Z,13.05
2023-05-02T07:40:33.006Z,14.50
2023-05-02T07:43:02.828Z,15.35
2023-05-02T07:45:31.107Z,14.18
2023-05-02T07:47:59.513Z,12.70
2023-05-02T07:50:28.060Z,15.88
2023-05-02T07:52:58.043Z,14.18
2023-05-02T07:55:27.635Z,15.32
2023-05-02T07:57:56.069Z,12.82
2023-05-02T08:00:24.514Z,10.68
2023-05-02T08:02:52.972Z,11.00
2023-05-02T08:05:21.446Z,11.35
2023-05-02T08:07:49.811Z,9.50
2023-05-02T08:10:19.620Z,9.77
2023-05-02T08:12:47.918Z,9.80
2023-05-02T08:15:16.235Z,11.05
2023-05-02T08:17:44.740Z,9.48
2023-05-02T08:20:13.433Z,10.45
2023-05-02T08:22:41.734Z,7.28
2023-05-02T08:25:10.808Z,9.25
2023-05-02T08:27:40.498Z,8.52
2023-05-02T08:30:09.779Z,8.90
2023-05-02T08:32:38.615Z,10.10
2023-05-02T08:35:07.988Z,8.85
2023-05-02T08:37:36.490Z,10.50
2023-05-02T08:40:05.312Z,7.53
2023-05-02T08:42:35.029Z,10.20
2023-05-02T08:45:06.262Z,6.22
2023-05-02T08:47:34.653Z,8.02
2023-05-02T08:50:04.415Z,10.93
2023-05-02T08:52:34.170Z,6.93
2023-05-02T08:55:03.906Z,9.63
2023-05-02T08:57:32.908Z,6.57
2023-05-02T09:00:01.191Z,4.82
2023-05-02T09:02:51.754Z,7.15
2023-05-02T09:05:22.080Z,11.13
2023-05-02T09:07:52.221Z,5.72
2023-05-02T09:10:20.658Z,5.97
2023-05-02T09:12:49.036Z,10.18
2023-05-02T09:15:20.768Z,10.98
2023-05-02T09:17:51.140Z,7.90
2023-05-02T09:20:19.490Z,7.45
2023-05-02T09:22:52.574Z,7.53
2023-05-02T09:25:21.352Z,7.97
2023-05-02T09:27:54.240Z,9.65
2023-05-02T09:30:24.331Z,7.22
2023-05-02T09:32:56.242Z,7.70
2023-05-02T09:35:24.921Z,8.52
2023-05-02T09:37:54.399Z,8.77
2023-05-02T09:40:23.392Z,11.90
2023-05-02T09:42:51.722Z,12.10
2023-05-02T09:45:24.162Z,13.52
2023-05-02T09:47:54.353Z,5.95
2023-05-02T09:50:35.019Z,6.82
2023-05-02T09:53:04.987Z,10.38
2023-05-02T09:55:34.128Z,5.22
2023-05-02T09:58:02.550Z,6.07
2023-05-02T10:00:41.636Z,8.63
2023-05-02T10:03:11.760Z,5.78
2023-05-02T10:05:41.165Z,9.23
2023-05-02T10:08:10.511Z,7.05
2023-05-02T10:10:40.163Z,8.60
2023-05-02T10:13:11.200Z,6.43
2023-05-02T10:15:44.877Z,9.15
2023-05-02T10:18:22.759Z,9.02
2023-05-02T10:20:58.329Z,10.20
2023-05-02T10:23:31.148Z,5.28
2023-05-02T10:26:00.753Z,4.00
2023-05-02T10:28:29.543Z,6.35
2023-05-02T10:30:59.672Z,8.65
2023-05-02T10:33:31.825Z,6.65
2023-05-02T10:36:00.486Z,9.07
2023-05-02T10:38:28.890Z,7.25
2023-05-02T10:41:01.674Z,9.35
2023-05-02T10:43:33.884Z,10.07
2023-05-02T10:46:03.611Z,9.68
2023-05-02T10:48:33.310Z,8.68
2023-05-02T10:51:02.408Z,10.30
2023-05-02T10:53:32.655Z,8.25
2023-05-02T10:56:18.896Z,10.07
2023-05-02T10:58:49.003Z,9.02
2023-05-02T11:01:42.250Z,6.93
2023-05-02T11:04:12.376Z,8.07
2023-05-02T11:07:17.734Z,5.75
2023-05-02T11:09:46.098Z,5.63
2023-05-02T11:12:47.575Z,8.73
2023-05-02T11:15:16.531Z,9.73
2023-05-02T11:18:03.158Z,10.63
2023-05-02T11:20:32.894Z,11.27
2023-05-02T11:23:22.928Z,9.40
2023-05-02T11:25:53.388Z,8.05
2023-05-02T11:28:41.478Z,9.00
2023-05-02T11:31:11.200Z,6.53
2023-05-02T11:33:40.097Z,6.40
2023-05-02T11:36:09.627Z,9.68
2023-05-02T11:38:40.122Z,10.35
2023-05-02T11:41:08.125Z,8.10
2023-05-02T11:43:36.498Z,12.85
2023-05-02T11:46:05.991Z,9.10
2023-05-02T11:48:34.206Z,8.70
2023-05-02T11:51:04.840Z,7.93
2023-05-02T11:53:34.853Z,11.57
2023-05-02T11:56:05.316Z,9.27
2023-05-02T11:58:34.334Z,10.13
2023-05-02T12:01:14.456Z,5.50
2023-05-02T12:03:43.056Z,8.35
2023-05-02T12:06:12.973Z,9.88
2023-05-02T12:08:44.339Z,5.15
2023-05-02T12:11:15.813Z,5.40
2023-05-02T12:13:48.196Z,6.68
2023-05-02T12:16:16.780Z,2.80
2023-05-02T12:18:45.736Z,7.32
2023-05-02T12:21:14.034Z,6.72
2023-05-02T12:23:43.716Z,5.63
2023-05-02T12:26:18.720Z,4.18
2023-05-02T12:28:50.938Z,5.50
2023-05-02T12:31:19.639Z,3.42
2023-05-02T12:33:53.171Z,8.77
2023-05-02T12:36:21.655Z,5.90
2023-05-02T12:38:53.787Z,3.00
2023-05-02T12:41:34.050Z,5.43
2023-05-02T12:44:02.567Z,4.00
2023-05-02T12:46:31.551Z,6.07
2023-05-02T12:49:03.953Z,9.23
2023-05-02T12:51:33.026Z,5.10
2023-05-02T12:54:02.582Z,9.38
2023-05-02T12:56:32.785Z,4.80
2023-05-02T12:59:05.205Z,6.18
2023-05-02T13:01:35.465Z,8.07
2023-05-02T13:04:04.071Z,6.22
2023-05-02T13:06:32.320Z,5.80
2023-05-02T13:09:00.400Z,9.32
2023-05-02T13:11:29.844Z,8.68
2023-05-02T13:14:00.252Z,4.57
2023-05-02T13:16:30.376Z,9.48
2023-05-02T13:18:58.708Z,9.13
2023-05-02T13:21:26.778Z,12.68
2023-05-02T13:23:55.454Z,9.88
2023-05-02T13:26:23.567Z,8.60
2023-05-02T13:28:53.005Z,5.68
2023-05-02T13:31:21.030Z,10.77
2023-05-02T13:33:49.134Z,9.07
2023-05-02T13:36:17.196Z,8.57
2023-05-02T13:38:45.275Z,8.98
2023-05-02T13:41:13.336Z,8.95
2023-05-02T13:43:41.388Z,7.97
2023-05-02T13:46:10.937Z,7.95
2023-05-02T13:48:39.009Z,6.70
2023-05-02T13:51:07.122Z,5.57
2023-05-02T13:53:35.741Z,9.85
2023-05-02T13:56:03.834Z,4.93
2023-05-02T13:58:31.856Z,10.75
2023-05-02T14:01:01.158Z,8.88
2023-05-02T14:03:30.731Z,7.93
2023-05-02T14:05:58.864Z,8.65
2023-05-02T14:08:27.808Z,5.55
2023-05-02T14:10:56.133Z,9.85
2023-05-02T14:13:24.843Z,8.00
2023-05-02T14:15:53.916Z,8.65
2023-05-02T14:18:22.404Z,9.90
2023-05-02T14:20:51.791Z,9.02
2023-05-02T14:23:19.828Z,6.97
2023-05-02T14:25:47.819Z,5.97
2023-05-02T14:28:15.925Z,7.72
2023-05-02T14:30:43.955Z,10.82
2023-05-02T14:33:12.185Z,5.40
2023-05-02T14:35:40.259Z,9.68
2023-05-02T14:38:09.702Z,6.07
2023-05-02T14:40:38.164Z,6.40
2023-05-02T14:43:06.538Z,5.05
2023-05-02T14:45:34.882Z,7.57
2023-05-02T14:48:03.015Z,4.55
2023-05-02T14:50:31.128Z,6.50
2023-05-02T14:52:59.209Z,3.17
2023-05-02T14:55:28.734Z,7.72
2023-05-02T14:57:58.448Z,6.57
2023-05-02T15:00:26.743Z,8.07
2023-05-02T15:02:54.862Z,9.98
2023-05-02T15:05:23.220Z,7.22
2023-05-02T15:07:51.364Z,5.95
2023-05-02T15:10:19.550Z,8.88
2023-05-02T15:12:50.878Z,7.30
2023-05-02T15:15:19.021Z,6.53
2023-05-02T15:17:47.154Z,7.70
2023-05-02T15:20:15.390Z,8.40
2023-05-02T15:22:43.789Z,5.68
2023-05-02T15:25:11.916Z,9.38
2023-05-02T15:27:40.006Z,8.60
2023-05-02T15:30:10.618Z,6.30
2023-05-02T15:32:38.801Z,6.78
2023-05-02T15:35:08.217Z,10.50
2023-05-02T15:37:36.609Z,7.28
2023-05-02T15:40:05.560Z,8.05
2023-05-02T15:42:37.239Z,8.82
2023-05-02T15:45:06.425Z,8.20
2023-05-02T15:47:35.832Z,9.05
2023-05-02T15:50:05.015Z,9.32
2023-05-02T15:52:33.351Z,9.32
2023-05-02T15:55:01.767Z,12.07
2023-05-02T15:57:30.039Z,9.93
2023-05-02T15:59:58.107Z,6.57
2023-05-02T16:02:26.192Z,9.55
2023-05-02T16:04:55.725Z,8.38
2023-05-02T16:07:23.759Z,6.97
2023-05-02T16:09:51.984Z,4.72
2023-05-02T16:12:20.073Z,5.80
2023-05-02T16:14:48.118Z,7.07
2023-05-02T16:17:16.359Z,9.52
2023-05-02T16:19:44.512Z,6.80
2023-05-02T16:22:13.916Z,9.57
2023-05-02T16:24:42.860Z,5.63
2023-05-02T16:27:11.019Z,9.70
2023-05-02T16:29:39.032Z,8.60
2023-05-02T16:32:08.273Z,8.13
2023-05-02T16:34:37.244Z,6.80
2023-05-02T16:37:05.363Z,11.30
2023-05-02T16:39:35.972Z,6.85
2023-05-02T16:42:04.246Z,8.13
2023-05-02T16:44:32.517Z,8.98
2023-05-02T16:47:01.042Z,7.63
2023-05-02T16:49:29.213Z,7.28
2023-05-02T16:51:57.743Z,7.53
2023-05-02T16:54:26.007Z,5.45
2023-05-02T16:56:55.796Z,12.25
2023-05-02T16:59:23.834Z,12.90
2023-05-02T17:01:51.868Z,13.50
2023-05-02T17:04:20.827Z,10.20
2023-05-02T17:06:48.937Z,8.30
2023-05-02T17:09:18.531Z,9.13
2023-05-02T17:11:46.612Z,11.55
2023-05-02T17:14:16.142Z,9.50
2023-05-02T17:16:44.262Z,11.02
2023-05-02T17:19:12.739Z,12.50
2023-05-02T17:21:40.965Z,7.95
2023-05-02T17:24:09.528Z,11.43
2023-05-02T17:26:37.648Z,9.30
2023-05-02T17:29:05.774Z,11.07
2023-05-02T17:31:35.300Z,10.88
2023-05-02T17:34:03.658Z,8.05
2023-05-02T17:36:32.968Z,12.10
2023-05-02T17:39:01.112Z,5.88
2023-05-02T17:41:29.189Z,10.05
2023-05-02T17:43:59.542Z,10.48
2023-05-02T17:46:27.777Z,9.05
2023-05-02T17:48:57.633Z,7.63
2023-05-02T17:51:26.018Z,6.43
2023-05-02T17:53:54.335Z,9.35
2023-05-02T17:56:22.635Z,9.25
2023-05-02T17:58:51.134Z,8.48
2023-05-02T18:01:19.561Z,10.02
2023-05-02T18:03:48.509Z,8.23
2023-05-02T18:06:19.481Z,9.00
2023-05-02T18:08:47.873Z,7.78
2023-05-02T18:11:17.261Z,9.98
2023-05-02T18:13:46.267Z,9.63
2023-05-02T18:16:14.909Z,7.05
2023-05-02T18:18:43.285Z,8.63
2023-05-02T18:21:11.790Z,9.13
2023-05-02T18:23:41.741Z,8.35
2023-05-02T18:26:14.122Z,8.95
2023-05-02T18:28:44.489Z,6.07
2023-05-02T18:31:19.196Z,9.38
2023-05-02T18:33:47.802Z,10.25
2023-05-02T18:36:19.366Z,4.32
2023-05-02T18:38:49.153Z,8.05
2023-05-02T18:41:18.425Z,5.05
2023-05-02T18:43:46.728Z,5.97
2023-05-02T18:46:15.063Z,8.10
2023-05-02T18:48:43.707Z,10.57
2023-05-02T18:51:12.003Z,9.02
2023-05-02T18:53:40.364Z,5.28
2023-05-02T18:56:15.078Z,9.73
2023-05-02T18:58:43.407Z,10.32
2023-05-02T19:01:15.299Z,9.13
2023-05-02T19:03:44.399Z,12.02
2023-05-02T19:06:13.012Z,10.70
2023-05-02T19:08:41.419Z,12.68
2023-05-02T19:11:09.844Z,10.85
2023-05-02T19:13:39.680Z,15.13
2023-05-02T19:16:11.821Z,8.07
2023-05-02T19:18:40.688Z,11.93
2023-05-02T19:21:12.898Z,8.57
2023-05-02T19:23:41.953Z,11.00
2023-05-02T19:26:13.884Z,10.93
2023-05-02T19:28:44.434Z,11.85
2023-05-02T19:31:14.305Z,9.77
2023-05-02T19:33:50.007Z,8.02
2023-05-02T19:36:19.039Z,6.10
2023-05-02T19:38:49.295Z,9.77
2023-05-02T19:41:17.862Z,9.27
2023-05-02T19:43:47.870Z,9.98
2023-05-02T19:46:16.480Z,12.45
2023-05-02T19:48:44.821Z,11.63
2023-05-02T19:51:13.264Z,10.27
2023-05-02T19:53:41.592Z,10.57
2023-05-02T19:56:10.616Z,15.48
2023-05-02T19:58:38.942Z,9.98
2023-05-02T20:01:08.742Z,11.30
2023-05-02T20:03:37.326Z,9.63
2023-05-02T20:06:06.079Z,12.65
2023-05-02T20:08:34.667Z,8.82
2023-05-02T20:11:03.219Z,10.02
2023-05-02T20:13:31.558Z,12.55
2023-05-02T20:15:59.902Z,6.30
2023-05-02T20:18:29.697Z,13.38
2023-05-02T20:20:58.019Z,5.32
2023-05-02T20:23:26.403Z,10.65
2023-05-02T20:25:54.719Z,9.93
2023-05-02T20:28:23.149Z,11.85
2023-05-02T20:30:51.636Z,10.35
2023-05-02T20:33:20.429Z,10.70
2023-05-02T20:35:56.245Z,8.20
2023-05-02T20:38:24.910Z,10.85
2023-05-02T20:40:53.284Z,12.18
2023-05-02T20:43:23.076Z,12.75
2023-05-02T20:45:51.474Z,12.57
2023-05-02T20:48:20.034Z,9.38
2023-05-02T20:50:56.786Z,8.73
2023-05-02T20:53:25.269Z,10.13
2023-05-02T20:55:56.430Z,10.70
2023-05-02T20:58:26.182Z,14.75
2023-05-02T21:00:55.039Z,11.02
2023-05-02T21:03:24.001Z,13.75
2023-05-02T21:05:53.785Z,10.45
2023-05-02T21:08:24.179Z,7.77
2023-05-02T21:10:52.524Z,11.03
2023-05-02T21:13:23.884Z,10.20
2023-05-02T21:15:52.199Z,12.20
2023-05-02T21:18:21.309Z,11.03
2023-05-02T21:20:50.310Z,8.60
2023-05-02T21:23:18.628Z,10.40
2023-05-02T21:25:48.346Z,10.10
2023-05-02T21:28:16.594Z,8.47
2023-05-02T21:30:44.924Z,13.70
2023-05-02T21:33:14.934Z,10.43
2023-05-02T21:35:43.383Z,10.40
2023-05-02T21:38:11.849Z,12.63
2023-05-02T21:40:41.047Z,12.10
2023-05-02T21:43:10.797Z,11.97
2023-05-02T21:45:45.440Z,9.20
2023-05-02T21:48:14.100Z,7.63
2023-05-02T21:50:42.825Z,11.33
2023-05-02T21:53:11.467Z,11.00
2023-05-02T21:55:41.130Z,10.00
2023-05-02T21:58:12.352Z,10.23
2023-05-02T22:00:41.753Z,14.53
2023-05-02T22:03:11.957Z,8.73
2023-05-02T22:05:41.382Z,12.63
2023-05-02T22:08:11.195Z,13.30
2023-05-02T22:10:41.561Z,11.20
2023-05-02T22:13:13.564Z,16.53
2023-05-02T22:15:45.461Z,17.50
2023-05-02T22:18:14.366Z,13.33
2023-05-02T22:20:43.252Z,10.67
2023-05-02T22:23:12.055Z,13.17
2023-05-02T22:25:42.122Z,9.60
2023-05-02T22:28:12.313Z,12.30
2023-05-02T22:30:42.917Z,12.27
2023-05-02T22:33:12.180Z,13.07
2023-05-02T22:35:40.682Z,11.77
2023-05-02T22:38:10.003Z,13.30
2023-05-02T22:40:38.335Z,12.23
2023-05-02T22:43:06.644Z,12.03
2023-05-02T22:45:36.527Z,11.73
2023-05-02T22:48:05.461Z,13.27
2023-05-02T22:50:33.911Z,15.13
2023-05-02T22:53:04.132Z,10.13
2023-05-02T22:55:32.609Z,11.90
2023-05-02T22:58:00.943Z,10.67
2023-05-02T23:00:29.265Z,11.60
2023-05-02T23:02:59.146Z,12.03
2023-05-02T23:05:27.444Z,9.03
2023-05-02T23:07:55.663Z,13.73
2023-05-02T23:10:24.004Z,13.50
2023-05-02T23:12:52.264Z,14.50
2023-05-02T23:15:20.987Z,10.63
2023-05-02T23:17:49.306Z,12.80
2023-05-02T23:20:20.473Z,10.63
2023-05-02T23:22:48.777Z,12.37
2023-05-02T23:25:17.072Z,11.97
2023-05-02T23:27:45.723Z,12.67
2023-05-02T23:30:14.256Z,13.07
2023-05-02T23:32:42.730Z,9.33
2023-05-02T23:35:12.405Z,11.93
2023-05-02T23:37:42.737Z,15.73
2023-05-02T23:40:11.506Z,11.27
2023-05-02T23:42:40.521Z,13.53
2023-05-02T23:45:09.767Z,12.90
2023-05-02T23:47:38.489Z,13.75
2023-05-02T23:50:07.968Z,8.77
2023-05-02T23:52:36.264Z,11.90
2023-05-02T23:55:10.459Z,8.00
2023-05-02T23:58:03.533Z,12.48
